Terminal Aerodrome Forecast
Issued by NWS Los Angeles, CA

Home | Current Version | Previous Version | Text Only | Print | Product List | Glossary On
Versions: 1 2 3 4 5 6 7 8 9 10 11 12 13 14 15 16 17 18 19 20 21 22 23
000
FTUS46 KLOX 301100
TAFSMX
TAF
KSMX 301124Z 3012/3112 VRB03KT 1SM BR OVC003
     FM301500 VRB03KT 3SM BR BKN005
     FM301700 28006KT P6SM BKN150
     FM302000 29012KT P6SM BKN150
     FM310300 31007KT P6SM BKN007
     FM310900 VRB03KT 2SM BR OVC003=

USA.gov is the U.S. government's official web portal to all federal, state and local government web resources and services.